Dillingham Airport
PADL : now visible

Airfield :











YOU CAN JOIN US ON...

 
LOGIN :

Register | Disclaimer

   EN    FR    IT 

 









Legend :    VFR   Marginal VFR   IFR   Intensive IFR   Very Intensive IFR
Visi :
Ceiling :
>= 8 km
>= 3000ft
5 to 8 km
1000 to 3000 ft
1500m to 5 km
500 to 1000 ft
800 to 1500m
200 to 500 ft
< 800m
< 200 ft
Symbols :   Thunderstorms  Fog  Heavy snow  Heavy precipitations  Wind > 20 kt






- Airport Elevation : 81 ft
- IATA code : DLG


PADL - Dillingham

CURRENT METAR :
  • 260056Z 01024G32KT 10SM CLR M12/M22 A2971 RMK AO2 PK WND 01034/0045 SLP066 T11221217

EXPIRED METARs :
  • 252356Z 36022G32KT 10SM CLR M12/M22 A2972 RMK AO2 PK WND 01033/2346 SLP069 T11221217 11117 21133 56007
  • 252256Z 35023G30KT 10SM CLR M12/M22 A2973 RMK AO2 PK WND 36038/2227 SLP071 T11171217

TAF PADL
Valid from the 26 at 00:00 until the 27 at 00:00 UTC


252320Z 2600/2624 36022G32KT P6SM SKC WS020/01055KT



MET'MAP, your aeronautical weather chart ! - Copyright ORBIFLY December 2007 - Disclaimer

ORBIFLY MET'MAP TEAM :

Programming & Development : Alexandra Zaïnal
Concept & original design : Baudouin d'Aumeries
Assistance for programming : Marc-Olivier Méhu
Technical & hardware support : Manuel Goepfert

Contact : metmap@orbifly.com




SOURCES & CREDITS :

   NOAA       Earth
Advisory